sensor_id;sensor_type;location;lat;lon;timestamp;temperature;humidity
292;DHT22;23311;48.776;9.162;2023-04-01T00:00:50;8.50;95.50
292;DHT22;23311;48.776;9.162;2023-04-01T00:03:19;8.40;95.50
292;DHT22;23311;48.776;9.162;2023-04-01T00:05:49;8.40;95.50
292;DHT22;23311;48.776;9.162;2023-04-01T00:08:17;8.50;95.50
292;DHT22;23311;48.776;9.162;2023-04-01T00:10:45;8.50;95.50
292;DHT22;23311;48.776;9.162;2023-04-01T00:13:13;8.50;95.50
292;DHT22;23311;48.776;9.162;2023-04-01T00:15:42;8.60;95.50
292;DHT22;23311;48.776;9.162;2023-04-01T00:18:11;8.60;95.50
292;DHT22;23311;48.776;9.162;2023-04-01T00:20:42;8.60;95.50
292;DHT22;23311;48.776;9.162;2023-04-01T00:23:12;8.70;95.50
292;DHT22;23311;48.776;9.162;2023-04-01T00:25:40;8.70;95.50
292;DHT22;23311;48.776;9.162;2023-04-01T00:28:08;8.70;95.50
292;DHT22;23311;48.776;9.162;2023-04-01T00:30:36;8.70;95.50
292;DHT22;23311;48.776;9.162;2023-04-01T00:33:05;8.70;95.50
292;DHT22;23311;48.776;9.162;2023-04-01T00:35:33;8.60;95.50
292;DHT22;23311;48.776;9.162;2023-04-01T00:38:01;8.60;95.50
292;DHT22;23311;48.776;9.162;2023-04-01T00:40:33;8.60;95.50
292;DHT22;23311;48.776;9.162;2023-04-01T00:43:02;8.60;95.50
292;DHT22;23311;48.776;9.162;2023-04-01T00:45:33;8.50;95.50
292;DHT22;23311;48.776;9.162;2023-04-01T00:48:05;8.60;95.50
292;DHT22;23311;48.776;9.162;2023-04-01T00:50:36;8.80;95.50
292;DHT22;23311;48.776;9.162;2023-04-01T00:53:05;8.80;95.50
292;DHT22;23311;48.776;9.162;2023-04-01T00:55:40;8.80;95.50
292;DHT22;23311;48.776;9.162;2023-04-01T00:58:13;8.70;95.50
292;DHT22;23311;48.776;9.162;2023-04-01T01:00:44;8.60;95.50
292;DHT22;23311;48.776;9.162;2023-04-01T01:03:13;8.60;95.50
292;DHT22;23311;48.776;9.162;2023-04-01T01:06:03;8.70;95.50
292;DHT22;23311;48.776;9.162;2023-04-01T01:08:44;8.70;95.50
292;DHT22;23311;48.776;9.162;2023-04-01T01:11:18;8.60;95.50
292;DHT22;23311;48.776;9.162;2023-04-01T01:13:56;8.60;95.50
292;DHT22;23311;48.776;9.162;2023-04-01T01:16:28;8.50;95.50
292;DHT22;23311;48.776;9.162;2023-04-01T01:19:09;8.50;95.50
292;DHT22;23311;48.776;9.162;2023-04-01T01:22:05;8.60;95.50
292;DHT22;23311;48.776;9.162;2023-04-01T01:27:33;8.50;95.50
292;DHT22;23311;48.776;9.162;2023-04-01T01:30:15;8.70;95.50
292;DHT22;23311;48.776;9.162;2023-04-01T01:33:16;8.70;95.50
292;DHT22;23311;48.776;9.162;2023-04-01T01:35:50;8.70;95.50
292;DHT22;23311;48.776;9.162;2023-04-01T01:38:23;8.60;95.50
292;DHT22;23311;48.776;9.162;2023-04-01T01:40:52;8.70;95.50
292;DHT22;23311;48.776;9.162;2023-04-01T01:43:26;8.70;95.50
292;DHT22;23311;48.776;9.162;2023-04-01T01:45:59;8.70;95.50
292;DHT22;23311;48.776;9.162;2023-04-01T01:48:29;8.70;95.50
292;DHT22;23311;48.776;9.162;2023-04-01T01:51:00;8.70;95.50
292;DHT22;23311;48.776;9.162;2023-04-01T01:53:33;8.60;95.50
292;DHT22;23311;48.776;9.162;2023-04-01T01:56:02;8.50;95.50
292;DHT22;23311;48.776;9.162;2023-04-01T01:58:33;8.50;95.50
292;DHT22;23311;48.776;9.162;2023-04-01T02:01:09;8.40;95.50
292;DHT22;23311;48.776;9.162;2023-04-01T02:03:38;8.40;95.50
292;DHT22;23311;48.776;9.162;2023-04-01T02:06:11;8.40;95.50
292;DHT22;23311;48.776;9.162;2023-04-01T02:08:42;8.40;95.50
292;DHT22;23311;48.776;9.162;2023-04-01T02:11:16;8.40;95.50
292;DHT22;23311;48.776;9.162;2023-04-01T02:13:50;8.40;95.50
292;DHT22;23311;48.776;9.162;2023-04-01T02:16:22;8.40;95.50
292;DHT22;23311;48.776;9.162;2023-04-01T02:18:53;8.30;95.50
292;DHT22;23311;48.776;9.162;2023-04-01T02:21:27;8.30;95.50
292;DHT22;23311;48.776;9.162;2023-04-01T02:24:08;8.40;95.50
292;DHT22;23311;48.776;9.162;2023-04-01T02:26:39;8.40;95.50
292;DHT22;23311;48.776;9.162;2023-04-01T02:29:08;8.40;95.50
292;DHT22;23311;48.776;9.162;2023-04-01T02:31:37;8.40;95.50
292;DHT22;23311;48.776;9.162;2023-04-01T02:34:05;8.40;95.50
292;DHT22;23311;48.776;9.162;2023-04-01T02:36:36;8.40;95.50
292;DHT22;23311;48.776;9.162;2023-04-01T02:39:05;8.40;95.50
292;DHT22;23311;48.776;9.162;2023-04-01T02:41:39;8.30;95.50
292;DHT22;23311;48.776;9.162;2023-04-01T02:44:08;8.20;95.50
292;DHT22;23311;48.776;9.162;2023-04-01T02:46:36;8.20;95.50
292;DHT22;23311;48.776;9.162;2023-04-01T02:49:05;8.10;95.50
292;DHT22;23311;48.776;9.162;2023-04-01T02:51:33;8.00;95.50
292;DHT22;23311;48.776;9.162;2023-04-01T02:54:03;8.00;95.50
292;DHT22;23311;48.776;9.162;2023-04-01T02:56:31;8.10;95.50
292;DHT22;23311;48.776;9.162;2023-04-01T02:58:59;8.10;95.50
292;DHT22;23311;48.776;9.162;2023-04-01T03:01:27;8.10;95.50
292;DHT22;23311;48.776;9.162;2023-04-01T03:04:03;8.20;95.50
292;DHT22;23311;48.776;9.162;2023-04-01T03:06:32;8.20;95.50
292;DHT22;23311;48.776;9.162;2023-04-01T03:09:00;8.20;95.50
292;DHT22;23311;48.776;9.162;2023-04-01T03:11:29;8.20;95.50
292;DHT22;23311;48.776;9.162;2023-04-01T03:13:57;8.20;95.50
292;DHT22;23311;48.776;9.162;2023-04-01T03:16:25;8.20;95.50
292;DHT22;23311;48.776;9.162;2023-04-01T03:18:53;8.20;95.50
292;DHT22;23311;48.776;9.162;2023-04-01T03:21:24;8.10;95.50
292;DHT22;23311;48.776;9.162;2023-04-01T03:23:52;8.10;95.50
292;DHT22;23311;48.776;9.162;2023-04-01T03:26:20;8.00;95.50
292;DHT22;23311;48.776;9.162;2023-04-01T03:28:49;7.90;95.50
292;DHT22;23311;48.776;9.162;2023-04-01T03:31:17;7.80;95.50
292;DHT22;23311;48.776;9.162;2023-04-01T03:33:49;7.90;95.50
292;DHT22;23311;48.776;9.162;2023-04-01T03:36:17;7.90;95.50
292;DHT22;23311;48.776;9.162;2023-04-01T03:38:45;7.90;95.50
292;DHT22;23311;48.776;9.162;2023-04-01T03:41:14;8.00;95.50
292;DHT22;23311;48.776;9.162;2023-04-01T03:43:42;8.00;95.50
292;DHT22;23311;48.776;9.162;2023-04-01T03:46:16;8.10;95.50
292;DHT22;23311;48.776;9.162;2023-04-01T03:48:45;8.10;95.50
292;DHT22;23311;48.776;9.162;2023-04-01T03:51:13;8.10;95.50
292;DHT22;23311;48.776;9.162;2023-04-01T03:53:41;8.10;95.50
292;DHT22;23311;48.776;9.162;2023-04-01T03:56:09;8.10;95.50
292;DHT22;23311;48.776;9.162;2023-04-01T03:58:37;8.10;95.50
292;DHT22;23311;48.776;9.162;2023-04-01T04:01:15;8.00;95.50
292;DHT22;23311;48.776;9.162;2023-04-01T04:03:43;8.00;95.50
292;DHT22;23311;48.776;9.162;2023-04-01T04:06:13;7.90;95.50
292;DHT22;23311;48.776;9.162;2023-04-01T04:08:41;7.90;95.50
292;DHT22;23311;48.776;9.162;2023-04-01T04:11:10;7.90;95.50
292;DHT22;23311;48.776;9.162;2023-04-01T04:13:38;7.80;95.50
292;DHT22;23311;48.776;9.162;2023-04-01T04:16:06;7.80;95.50
292;DHT22;23311;48.776;9.162;2023-04-01T04:18:36;7.80;95.50
292;DHT22;23311;48.776;9.162;2023-04-01T04:21:04;7.90;95.50
292;DHT22;23311;48.776;9.162;2023-04-01T04:23:33;7.90;95.50
292;DHT22;23311;48.776;9.162;2023-04-01T04:26:03;7.90;95.50
292;DHT22;23311;48.776;9.162;2023-04-01T04:28:32;7.90;95.50
292;DHT22;23311;48.776;9.162;2023-04-01T04:31:00;7.80;95.50
292;DHT22;23311;48.776;9.162;2023-04-01T04:33:29;7.70;95.50
292;DHT22;23311;48.776;9.162;2023-04-01T04:35:59;7.60;95.50
292;DHT22;23311;48.776;9.162;2023-04-01T04:38:27;7.70;95.50
292;DHT22;23311;48.776;9.162;2023-04-01T04:40:55;7.70;95.50
292;DHT22;23311;48.776;9.162;2023-04-01T04:43:24;7.70;95.50
292;DHT22;23311;48.776;9.162;2023-04-01T04:45:52;7.60;95.50
292;DHT22;23311;48.776;9.162;2023-04-01T04:48:20;7.60;95.50
292;DHT22;23311;48.776;9.162;2023-04-01T04:50:49;7.50;95.50
292;DHT22;23311;48.776;9.162;2023-04-01T04:53:19;7.50;95.50
292;DHT22;23311;48.776;9.162;2023-04-01T04:55:48;7.50;95.50
292;DHT22;23311;48.776;9.162;2023-04-01T04:58:17;7.50;95.50
292;DHT22;23311;48.776;9.162;2023-04-01T05:00:45;7.60;95.50
292;DHT22;23311;48.776;9.162;2023-04-01T05:03:14;7.60;95.50
292;DHT22;23311;48.776;9.162;2023-04-01T05:05:49;7.60;95.50
292;DHT22;23311;48.776;9.162;2023-04-01T05:08:18;7.60;95.50
292;DHT22;23311;48.776;9.162;2023-04-01T05:10:47;7.50;95.50
292;DHT22;23311;48.776;9.162;2023-04-01T05:13:15;7.40;95.50
292;DHT22;23311;48.776;9.162;2023-04-01T05:15:43;7.50;95.50
292;DHT22;23311;48.776;9.162;2023-04-01T05:18:11;7.50;95.50
292;DHT22;23311;48.776;9.162;2023-04-01T05:20:45;7.60;95.50
292;DHT22;23311;48.776;9.162;2023-04-01T05:23:13;7.70;95.50
292;DHT22;23311;48.776;9.162;2023-04-01T05:25:43;7.70;95.50
292;DHT22;23311;48.776;9.162;2023-04-01T05:28:11;7.80;95.50
292;DHT22;23311;48.776;9.162;2023-04-01T05:30:40;7.90;95.50
292;DHT22;23311;48.776;9.162;2023-04-01T05:33:10;7.90;95.50
292;DHT22;23311;48.776;9.162;2023-04-01T05:35:39;8.00;95.50
292;DHT22;23311;48.776;9.162;2023-04-01T05:38:07;8.00;95.50
292;DHT22;23311;48.776;9.162;2023-04-01T05:40:35;8.10;95.50
292;DHT22;23311;48.776;9.162;2023-04-01T05:43:05;8.20;95.50
292;DHT22;23311;48.776;9.162;2023-04-01T05:45:33;8.40;95.50
292;DHT22;23311;48.776;9.162;2023-04-01T05:48:01;8.50;95.50
292;DHT22;23311;48.776;9.162;2023-04-01T05:50:30;8.50;95.50
292;DHT22;23311;48.776;9.162;2023-04-01T05:52:58;8.60;95.50
292;DHT22;23311;48.776;9.162;2023-04-01T05:55:26;8.70;95.50
292;DHT22;23311;48.776;9.162;2023-04-01T05:57:54;8.70;95.50
292;DHT22;23311;48.776;9.162;2023-04-01T06:00:23;8.80;95.50
292;DHT22;23311;48.776;9.162;2023-04-01T06:02:51;8.90;95.50
292;DHT22;23311;48.776;9.162;2023-04-01T06:05:21;9.00;95.50
292;DHT22;23311;48.776;9.162;2023-04-01T06:07:51;9.10;95.50
292;DHT22;23311;48.776;9.162;2023-04-01T06:10:28;9.20;95.50
292;DHT22;23311;48.776;9.162;2023-04-01T06:13:03;9.20;95.50
292;DHT22;23311;48.776;9.162;2023-04-01T06:15:39;9.30;95.50
292;DHT22;23311;48.776;9.162;2023-04-01T06:18:38;9.40;95.50
292;DHT22;23311;48.776;9.162;2023-04-01T06:21:19;9.50;95.50
292;DHT22;23311;48.776;9.162;2023-04-01T06:24:02;9.70;95.50
292;DHT22;23311;48.776;9.162;2023-04-01T06:26:46;9.80;95.50
292;DHT22;23311;48.776;9.162;2023-04-01T06:32:26;9.90;95.50
292;DHT22;23311;48.776;9.162;2023-04-01T06:35:24;9.90;95.50
292;DHT22;23311;48.776;9.162;2023-04-01T06:38:13;10.00;95.50
292;DHT22;23311;48.776;9.162;2023-04-01T06:43:53;10.00;95.50
292;DHT22;23311;48.776;9.162;2023-04-01T06:46:34;10.00;95.50
292;DHT22;23311;48.776;9.162;2023-04-01T06:49:23;10.00;95.50
292;DHT22;23311;48.776;9.162;2023-04-01T06:51:59;10.00;95.50
292;DHT22;23311;48.776;9.162;2023-04-01T06:54:32;10.00;95.50
292;DHT22;23311;48.776;9.162;2023-04-01T06:57:05;10.00;95.50
292;DHT22;23311;48.776;9.162;2023-04-01T06:59:38;10.10;95.50
292;DHT22;23311;48.776;9.162;2023-04-01T07:02:19;10.20;95.50
292;DHT22;23311;48.776;9.162;2023-04-01T07:04:53;10.20;95.50
292;DHT22;23311;48.776;9.162;2023-04-01T07:07:29;10.30;95.50
292;DHT22;23311;48.776;9.162;2023-04-01T07:10:02;10.30;95.50
292;DHT22;23311;48.776;9.162;2023-04-01T07:12:38;10.40;95.50
292;DHT22;23311;48.776;9.162;2023-04-01T07:15:17;10.30;95.50
292;DHT22;23311;48.776;9.162;2023-04-01T07:17:50;10.30;95.50
292;DHT22;23311;48.776;9.162;2023-04-01T07:20:25;10.30;95.50
292;DHT22;23311;48.776;9.162;2023-04-01T07:22:57;10.40;95.50
292;DHT22;23311;48.776;9.162;2023-04-01T07:25:29;10.30;95.50
292;DHT22;23311;48.776;9.162;2023-04-01T07:28:02;10.20;95.50
292;DHT22;23311;48.776;9.162;2023-04-01T07:30:46;10.20;95.50
292;DHT22;23311;48.776;9.162;2023-04-01T07:33:21;10.40;95.50
292;DHT22;23311;48.776;9.162;2023-04-01T07:35:56;10.30;95.50
292;DHT22;23311;48.776;9.162;2023-04-01T07:38:35;10.30;95.50
292;DHT22;23311;48.776;9.162;2023-04-01T07:41:11;10.20;95.50
292;DHT22;23311;48.776;9.162;2023-04-01T07:44:02;10.30;95.50
292;DHT22;23311;48.776;9.162;2023-04-01T07:46:50;10.30;95.50
292;DHT22;23311;48.776;9.162;2023-04-01T07:49:26;10.20;95.50
292;DHT22;23311;48.776;9.162;2023-04-01T07:52:00;10.30;95.50
292;DHT22;23311;48.776;9.162;2023-04-01T07:54:37;10.40;95.50
292;DHT22;23311;48.776;9.162;2023-04-01T07:57:11;10.50;95.50
292;DHT22;23311;48.776;9.162;2023-04-01T07:59:47;10.70;95.50
292;DHT22;23311;48.776;9.162;2023-04-01T08:02:28;10.70;95.50
292;DHT22;23311;48.776;9.162;2023-04-01T08:05:05;10.80;95.50
292;DHT22;23311;48.776;9.162;2023-04-01T08:07:42;11.00;95.50
292;DHT22;23311;48.776;9.162;2023-04-01T08:10:17;11.00;95.50
292;DHT22;23311;48.776;9.162;2023-04-01T08:12:55;11.10;95.50
292;DHT22;23311;48.776;9.162;2023-04-01T08:15:28;10.70;95.50
292;DHT22;23311;48.776;9.162;2023-04-01T08:18:06;10.80;95.50
292;DHT22;23311;48.776;9.162;2023-04-01T08:20:40;10.90;95.50
292;DHT22;23311;48.776;9.162;2023-04-01T08:23:14;11.10;95.50
292;DHT22;23311;48.776;9.162;2023-04-01T08:25:48;11.00;95.50
292;DHT22;23311;48.776;9.162;2023-04-01T08:28:23;11.10;95.50
292;DHT22;23311;48.776;9.162;2023-04-01T08:30:53;11.10;95.50
292;DHT22;23311;48.776;9.162;2023-04-01T08:33:25;10.80;95.50
292;DHT22;23311;48.776;9.162;2023-04-01T08:35:57;10.90;95.50
292;DHT22;23311;48.776;9.162;2023-04-01T08:38:30;10.90;95.50
292;DHT22;23311;48.776;9.162;2023-04-01T08:41:07;10.70;95.50
292;DHT22;23311;48.776;9.162;2023-04-01T08:47:13;10.40;95.50
292;DHT22;23311;48.776;9.162;2023-04-01T08:50:18;10.20;95.50
292;DHT22;23311;48.776;9.162;2023-04-01T08:52:52;10.10;95.50
292;DHT22;23311;48.776;9.162;2023-04-01T08:55:34;9.80;95.50
292;DHT22;23311;48.776;9.162;2023-04-01T08:58:21;9.60;95.50
292;DHT22;23311;48.776;9.162;2023-04-01T09:00:54;9.50;95.50
292;DHT22;23311;48.776;9.162;2023-04-01T09:03:41;9.50;95.50
292;DHT22;23311;48.776;9.162;2023-04-01T09:06:27;9.60;95.50
292;DHT22;23311;48.776;9.162;2023-04-01T09:09:18;9.60;95.50
292;DHT22;23311;48.776;9.162;2023-04-01T09:15:02;9.80;95.50
292;DHT22;23311;48.776;9.162;2023-04-01T09:18:09;9.90;95.50
292;DHT22;23311;48.776;9.162;2023-04-01T09:20:53;10.10;95.50
292;DHT22;23311;48.776;9.162;2023-04-01T09:23:33;10.30;95.50
292;DHT22;23311;48.776;9.162;2023-04-01T09:26:17;10.40;95.50
292;DHT22;23311;48.776;9.162;2023-04-01T09:28:58;10.70;95.50
292;DHT22;23311;48.776;9.162;2023-04-01T09:34:54;11.50;95.50
292;DHT22;23311;48.776;9.162;2023-04-01T09:37:41;12.10;95.50
292;DHT22;23311;48.776;9.162;2023-04-01T09:40:18;12.50;95.50
292;DHT22;23311;48.776;9.162;2023-04-01T09:43:01;11.60;95.50
292;DHT22;23311;48.776;9.162;2023-04-01T09:45:43;10.70;95.50
292;DHT22;23311;48.776;9.162;2023-04-01T09:48:24;10.80;95.50
292;DHT22;23311;48.776;9.162;2023-04-01T09:51:03;10.50;95.50
292;DHT22;23311;48.776;9.162;2023-04-01T09:53:47;10.60;95.50
292;DHT22;23311;48.776;9.162;2023-04-01T09:59:49;10.80;95.50
292;DHT22;23311;48.776;9.162;2023-04-01T10:06:11;11.10;95.50
292;DHT22;23311;48.776;9.162;2023-04-01T10:09:10;11.20;95.50
292;DHT22;23311;48.776;9.162;2023-04-01T10:12:13;10.90;95.50
292;DHT22;23311;48.776;9.162;2023-04-01T10:15:15;11.10;95.50
292;DHT22;23311;48.776;9.162;2023-04-01T10:18:34;11.20;95.50
292;DHT22;23311;48.776;9.162;2023-04-01T10:24:19;11.60;95.50
292;DHT22;23311;48.776;9.162;2023-04-01T10:27:10;11.50;95.50
292;DHT22;23311;48.776;9.162;2023-04-01T10:30:03;11.60;95.50
292;DHT22;23311;48.776;9.162;2023-04-01T10:36:01;12.90;94.40
292;DHT22;23311;48.776;9.162;2023-04-01T10:39:01;12.30;95.50
292;DHT22;23311;48.776;9.162;2023-04-01T10:41:58;12.30;95.50
292;DHT22;23311;48.776;9.162;2023-04-01T10:44:57;12.40;95.40
292;DHT22;23311;48.776;9.162;2023-04-01T10:47:58;12.40;95.30
292;DHT22;23311;48.776;9.162;2023-04-01T10:53:37;11.90;95.50
292;DHT22;23311;48.776;9.162;2023-04-01T10:56:32;11.90;95.50
292;DHT22;23311;48.776;9.162;2023-04-01T11:11:48;12.10;95.50
292;DHT22;23311;48.776;9.162;2023-04-01T11:14:43;11.90;95.50
292;DHT22;23311;48.776;9.162;2023-04-01T11:17:31;12.20;95.50
292;DHT22;23311;48.776;9.162;2023-04-01T11:20:28;12.80;93.80
292;DHT22;23311;48.776;9.162;2023-04-01T11:26:36;12.90;93.00
292;DHT22;23311;48.776;9.162;2023-04-01T11:32:34;13.00;93.10
292;DHT22;23311;48.776;9.162;2023-04-01T11:38:24;13.80;90.20
292;DHT22;23311;48.776;9.162;2023-04-01T11:40:59;14.30;89.70
292;DHT22;23311;48.776;9.162;2023-04-01T11:43:37;14.40;88.80
292;DHT22;23311;48.776;9.162;2023-04-01T11:46:11;13.60;90.40
292;DHT22;23311;48.776;9.162;2023-04-01T11:48:52;14.00;90.30
292;DHT22;23311;48.776;9.162;2023-04-01T11:51:43;14.10;89.80
292;DHT22;23311;48.776;9.162;2023-04-01T11:54:24;13.40;90.20
292;DHT22;23311;48.776;9.162;2023-04-01T11:57:05;13.30;90.60
292;DHT22;23311;48.776;9.162;2023-04-01T12:00:05;13.00;91.60
292;DHT22;23311;48.776;9.162;2023-04-01T12:02:48;12.90;92.20
292;DHT22;23311;48.776;9.162;2023-04-01T12:05:36;12.90;93.10
292;DHT22;23311;48.776;9.162;2023-04-01T12:08:15;12.80;92.80
292;DHT22;23311;48.776;9.162;2023-04-01T12:10:53;12.70;93.00
292;DHT22;23311;48.776;9.162;2023-04-01T12:13:35;12.70;94.10
292;DHT22;23311;48.776;9.162;2023-04-01T12:16:22;12.30;95.40
292;DHT22;23311;48.776;9.162;2023-04-01T12:18:57;12.30;94.20
292;DHT22;23311;48.776;9.162;2023-04-01T12:21:32;12.00;95.50
292;DHT22;23311;48.776;9.162;2023-04-01T12:24:40;11.70;95.50
292;DHT22;23311;48.776;9.162;2023-04-01T12:27:26;11.90;95.50
292;DHT22;23311;48.776;9.162;2023-04-01T12:30:11;11.70;95.50
292;DHT22;23311;48.776;9.162;2023-04-01T12:32:46;12.20;95.50
292;DHT22;23311;48.776;9.162;2023-04-01T12:35:24;12.60;95.50
292;DHT22;23311;48.776;9.162;2023-04-01T12:38:09;12.60;95.50
292;DHT22;23311;48.776;9.162;2023-04-01T12:40:49;12.40;95.50
292;DHT22;23311;48.776;9.162;2023-04-01T12:43:48;13.00;95.10
292;DHT22;23311;48.776;9.162;2023-04-01T12:46:25;13.20;92.20
292;DHT22;23311;48.776;9.162;2023-04-01T12:49:22;13.60;91.50
292;DHT22;23311;48.776;9.162;2023-04-01T12:52:09;13.90;90.10
292;DHT22;23311;48.776;9.162;2023-04-01T12:55:07;13.60;90.60
292;DHT22;23311;48.776;9.162;2023-04-01T12:58:10;12.70;91.60
292;DHT22;23311;48.776;9.162;2023-04-01T13:00:55;13.30;91.60
292;DHT22;23311;48.776;9.162;2023-04-01T13:06:41;13.20;91.10
292;DHT22;23311;48.776;9.162;2023-04-01T13:09:23;13.40;90.20
292;DHT22;23311;48.776;9.162;2023-04-01T13:12:06;13.20;91.20
292;DHT22;23311;48.776;9.162;2023-04-01T13:15:05;13.30;90.60
292;DHT22;23311;48.776;9.162;2023-04-01T13:17:39;13.10;90.80
292;DHT22;23311;48.776;9.162;2023-04-01T13:20:14;12.80;92.50
292;DHT22;23311;48.776;9.162;2023-04-01T13:22:56;12.70;91.60
292;DHT22;23311;48.776;9.162;2023-04-01T13:25:36;12.30;93.20
292;DHT22;23311;48.776;9.162;2023-04-01T13:28:13;12.90;92.50
292;DHT22;23311;48.776;9.162;2023-04-01T13:30:47;12.50;92.90
292;DHT22;23311;48.776;9.162;2023-04-01T13:33:24;12.50;93.10
292;DHT22;23311;48.776;9.162;2023-04-01T13:36:08;13.00;92.40
292;DHT22;23311;48.776;9.162;2023-04-01T13:39:02;13.40;91.20
292;DHT22;23311;48.776;9.162;2023-04-01T13:41:47;13.30;90.90
292;DHT22;23311;48.776;9.162;2023-04-01T13:44:22;13.50;90.50
292;DHT22;23311;48.776;9.162;2023-04-01T13:47:11;13.70;90.00
292;DHT22;23311;48.776;9.162;2023-04-01T13:52:51;13.20;90.70
292;DHT22;23311;48.776;9.162;2023-04-01T13:55:33;12.90;91.40
292;DHT22;23311;48.776;9.162;2023-04-01T14:01:07;12.50;92.30
292;DHT22;23311;48.776;9.162;2023-04-01T14:03:51;13.00;92.20
292;DHT22;23311;48.776;9.162;2023-04-01T14:06:31;13.30;90.60
292;DHT22;23311;48.776;9.162;2023-04-01T14:09:16;13.10;90.90
292;DHT22;23311;48.776;9.162;2023-04-01T14:11:53;13.20;90.70
292;DHT22;23311;48.776;9.162;2023-04-01T14:14:36;13.20;91.30
292;DHT22;23311;48.776;9.162;2023-04-01T14:17:28;12.80;92.10
292;DHT22;23311;48.776;9.162;2023-04-01T14:20:33;12.70;92.70
292;DHT22;23311;48.776;9.162;2023-04-01T14:26:22;11.80;95.50
292;DHT22;23311;48.776;9.162;2023-04-01T14:29:01;11.70;95.50
292;DHT22;23311;48.776;9.162;2023-04-01T14:34:34;12.00;95.50
292;DHT22;23311;48.776;9.162;2023-04-01T14:37:14;12.20;95.50
292;DHT22;23311;48.776;9.162;2023-04-01T14:43:15;11.80;95.50
292;DHT22;23311;48.776;9.162;2023-04-01T14:45:59;12.00;95.50
292;DHT22;23311;48.776;9.162;2023-04-01T14:48:34;11.90;95.50
292;DHT22;23311;48.776;9.162;2023-04-01T14:51:09;11.80;95.50
292;DHT22;23311;48.776;9.162;2023-04-01T14:53:43;11.90;95.50
292;DHT22;23311;48.776;9.162;2023-04-01T14:56:13;12.10;95.50
292;DHT22;23311;48.776;9.162;2023-04-01T14:59:06;12.30;95.50
292;DHT22;23311;48.776;9.162;2023-04-01T15:01:43;12.40;95.50
292;DHT22;23311;48.776;9.162;2023-04-01T15:04:49;12.40;95.40
292;DHT22;23311;48.776;9.162;2023-04-01T15:10:26;12.20;95.50
292;DHT22;23311;48.776;9.162;2023-04-01T15:13:04;12.10;95.30
292;DHT22;23311;48.776;9.162;2023-04-01T15:15:44;11.90;95.50
292;DHT22;23311;48.776;9.162;2023-04-01T15:18:18;11.90;95.50
292;DHT22;23311;48.776;9.162;2023-04-01T15:21:25;11.90;95.50
292;DHT22;23311;48.776;9.162;2023-04-01T15:24:00;12.10;95.50
292;DHT22;23311;48.776;9.162;2023-04-01T15:26:42;12.40;94.90
292;DHT22;23311;48.776;9.162;2023-04-01T15:32:21;12.50;94.10
292;DHT22;23311;48.776;9.162;2023-04-01T15:34:56;12.60;93.80
292;DHT22;23311;48.776;9.162;2023-04-01T15:37:36;12.70;93.70
292;DHT22;23311;48.776;9.162;2023-04-01T15:40:24;12.50;93.80
292;DHT22;23311;48.776;9.162;2023-04-01T15:43:30;12.10;95.30
292;DHT22;23311;48.776;9.162;2023-04-01T15:46:14;12.20;95.40
292;DHT22;23311;48.776;9.162;2023-04-01T15:49:00;12.30;95.20
292;DHT22;23311;48.776;9.162;2023-04-01T15:51:54;12.30;94.90
292;DHT22;23311;48.776;9.162;2023-04-01T15:57:18;12.10;95.50
292;DHT22;23311;48.776;9.162;2023-04-01T16:00:06;11.70;95.50
292;DHT22;23311;48.776;9.162;2023-04-01T16:02:44;11.80;95.50
292;DHT22;23311;48.776;9.162;2023-04-01T16:05:27;11.90;95.50
292;DHT22;23311;48.776;9.162;2023-04-01T16:08:19;11.90;95.50
292;DHT22;23311;48.776;9.162;2023-04-01T16:11:10;12.10;95.50
292;DHT22;23311;48.776;9.162;2023-04-01T16:13:48;12.20;95.50
292;DHT22;23311;48.776;9.162;2023-04-01T16:16:30;12.10;94.70
292;DHT22;23311;48.776;9.162;2023-04-01T16:19:25;11.90;95.30
292;DHT22;23311;48.776;9.162;2023-04-01T16:22:01;11.80;95.50
292;DHT22;23311;48.776;9.162;2023-04-01T16:24:35;11.60;95.50
292;DHT22;23311;48.776;9.162;2023-04-01T16:27:13;11.60;95.50
292;DHT22;23311;48.776;9.162;2023-04-01T16:29:47;11.50;95.50
292;DHT22;23311;48.776;9.162;2023-04-01T16:32:36;11.50;95.50
292;DHT22;23311;48.776;9.162;2023-04-01T16:35:20;11.50;95.50
292;DHT22;23311;48.776;9.162;2023-04-01T16:37:53;11.50;95.50
292;DHT22;23311;48.776;9.162;2023-04-01T16:40:31;11.50;95.50
292;DHT22;23311;48.776;9.162;2023-04-01T16:43:15;11.30;95.50
292;DHT22;23311;48.776;9.162;2023-04-01T16:45:51;11.40;95.50
292;DHT22;23311;48.776;9.162;2023-04-01T16:48:24;11.30;95.50
292;DHT22;23311;48.776;9.162;2023-04-01T16:50:59;11.30;95.50
292;DHT22;23311;48.776;9.162;2023-04-01T16:53:36;11.50;95.50
292;DHT22;23311;48.776;9.162;2023-04-01T16:56:12;11.60;95.50
292;DHT22;23311;48.776;9.162;2023-04-01T16:58:55;11.60;95.50
292;DHT22;23311;48.776;9.162;2023-04-01T17:01:26;11.60;95.50
292;DHT22;23311;48.776;9.162;2023-04-01T17:04:00;11.50;95.50
292;DHT22;23311;48.776;9.162;2023-04-01T17:06:37;11.60;95.50
292;DHT22;23311;48.776;9.162;2023-04-01T17:09:31;11.60;95.50
292;DHT22;23311;48.776;9.162;2023-04-01T17:12:08;11.50;95.50
292;DHT22;23311;48.776;9.162;2023-04-01T17:14:46;11.40;95.50
292;DHT22;23311;48.776;9.162;2023-04-01T17:17:27;11.40;95.50
292;DHT22;23311;48.776;9.162;2023-04-01T17:20:07;11.40;95.50
292;DHT22;23311;48.776;9.162;2023-04-01T17:22:42;11.40;95.50
292;DHT22;23311;48.776;9.162;2023-04-01T17:25:25;11.30;95.50
292;DHT22;23311;48.776;9.162;2023-04-01T17:27:59;11.20;95.50
292;DHT22;23311;48.776;9.162;2023-04-01T17:30:37;11.20;95.50
292;DHT22;23311;48.776;9.162;2023-04-01T17:33:31;11.20;95.50
292;DHT22;23311;48.776;9.162;2023-04-01T17:36:04;11.10;95.50
292;DHT22;23311;48.776;9.162;2023-04-01T17:38:48;11.10;95.50
292;DHT22;23311;48.776;9.162;2023-04-01T17:41:27;11.10;95.50
292;DHT22;23311;48.776;9.162;2023-04-01T17:44:10;11.10;95.50
292;DHT22;23311;48.776;9.162;2023-04-01T17:46:54;11.10;95.50
292;DHT22;23311;48.776;9.162;2023-04-01T17:49:28;11.10;95.50
292;DHT22;23311;48.776;9.162;2023-04-01T17:52:04;11.10;95.50
292;DHT22;23311;48.776;9.162;2023-04-01T17:54:38;11.10;95.50
292;DHT22;23311;48.776;9.162;2023-04-01T17:57:30;11.10;95.50
292;DHT22;23311;48.776;9.162;2023-04-01T18:00:12;11.00;95.50
292;DHT22;23311;48.776;9.162;2023-04-01T18:02:52;10.90;95.50
292;DHT22;23311;48.776;9.162;2023-04-01T18:05:33;10.90;95.50
292;DHT22;23311;48.776;9.162;2023-04-01T18:08:13;10.80;95.50
292;DHT22;23311;48.776;9.162;2023-04-01T18:10:55;10.60;95.50
292;DHT22;23311;48.776;9.162;2023-04-01T18:13:41;10.40;95.50
292;DHT22;23311;48.776;9.162;2023-04-01T18:16:22;10.20;95.50
292;DHT22;23311;48.776;9.162;2023-04-01T18:19:04;10.10;95.50
292;DHT22;23311;48.776;9.162;2023-04-01T18:21:43;9.90;95.50
292;DHT22;23311;48.776;9.162;2023-04-01T18:24:18;9.80;95.50
292;DHT22;23311;48.776;9.162;2023-04-01T18:26:50;9.70;95.50
292;DHT22;23311;48.776;9.162;2023-04-01T18:29:34;9.80;95.50
292;DHT22;23311;48.776;9.162;2023-04-01T18:32:19;9.70;95.50
292;DHT22;23311;48.776;9.162;2023-04-01T18:35:00;9.70;95.50
292;DHT22;23311;48.776;9.162;2023-04-01T18:37:31;9.70;95.50
292;DHT22;23311;48.776;9.162;2023-04-01T18:40:11;9.60;95.50
292;DHT22;23311;48.776;9.162;2023-04-01T18:42:46;9.50;95.50